Time;durP1;ratioP1;P1;durP2;ratioP2;P2;SDS_P1;SDS_P2;PMS_P1;PMS_P2;Temp;Humidity;BMP_temperature;BMP_pressure;BME280_temperature;BME280_humidity;BME280_pressure;Samples;Min_cycle;Max_cycle;Signal;HPM_P1;HPM_P2
2023/04/25 00:02:04;;;;;;;;;;;11.80;78.20;;;-151.14;100.00;62537.16;4975820;28;19928;-84
2023/04/25 00:04:33;;;;;;;;;;;11.80;78.20;;;-151.14;100.00;62537.16;4959714;28;19922;-85
2023/04/25 00:07:02;;;;;;;;;;;11.80;78.10;;;-151.14;100.00;62537.16;4975577;28;20099;-84
2023/04/25 00:09:32;;;;;;;;;;;11.80;78.10;;;-151.14;100.00;62537.16;4959899;28;19928;-84
2023/04/25 00:12:01;;;;;;;;;;;11.80;78.30;;;-151.14;100.00;62537.16;4975988;28;19922;-84
2023/04/25 00:14:29;;;;;;;;;;;11.80;78.30;;;-151.14;100.00;62537.16;4975279;28;19922;-84
2023/04/25 00:16:57;;;;;;;;;;;11.80;78.30;;;-151.14;100.00;62537.16;4975948;28;19936;-84
2023/04/25 00:19:26;;;;;;;;;;;11.80;78.20;;;-151.14;100.00;62537.16;4993166;28;20256;-84
2023/04/25 00:21:54;;;;;;;;;;;11.80;78.20;;;-151.14;100.00;62537.16;4959644;28;19922;-84
2023/04/25 00:24:22;;;;;;;;;;;11.80;78.30;;;-151.14;100.00;62537.16;4975338;28;19921;-84
2023/04/25 00:26:52;;;;;;;;;;;11.80;78.30;;;-151.14;100.00;62537.16;4975750;28;20129;-84
2023/04/25 00:29:20;;;;;;;;;;;11.80;78.30;;;-151.14;100.00;62537.16;4992896;28;19928;-85
2023/04/25 00:31:48;;;;;;;;;;;11.80;78.30;;;-151.14;100.00;62537.16;4975696;28;19922;-84
2023/04/25 00:34:16;;;;;;;;;;;11.80;78.40;;;-151.14;100.00;62537.16;4991181;28;19921;-84
2023/04/25 00:36:44;;;;;;;;;;;11.80;78.30;;;-151.14;100.00;62537.16;4975445;28;19928;-84
2023/04/25 00:39:12;;;;;;;;;;;11.80;78.40;;;-151.14;100.00;62537.16;4975391;28;19922;-84
2023/04/25 00:41:41;;;;;;;;;;;11.80;78.40;;;-151.14;100.00;62537.16;4975675;28;19922;-84
2023/04/25 00:44:11;;;;;;;;;;;11.80;78.40;;;-151.14;100.00;62537.16;4974874;28;19929;-85
2023/04/25 00:46:39;;;;;;;;;;;11.80;78.30;;;-151.14;100.00;62537.16;4991720;28;19922;-84
2023/04/25 00:49:08;;;;;;;;;;;11.80;78.30;;;-151.14;100.00;62537.16;4975175;28;19921;-84
2023/04/25 00:51:36;;;;;;;;;;;11.80;78.20;;;-151.14;100.00;62537.16;4975367;28;19921;-84
2023/04/25 00:54:04;;;;;;;;;;;11.80;78.40;;;-151.14;100.00;62537.16;4974597;28;20213;-85
2023/04/25 00:56:32;;;;;;;;;;;11.80;78.40;;;-151.14;100.00;62537.16;4959263;28;19944;-84
2023/04/25 00:59:00;;;;;;;;;;;11.80;78.40;;;-151.14;100.00;62537.16;4991436;28;19922;-84
2023/04/25 01:01:31;;;;;;;;;;;11.80;78.40;;;-151.14;100.00;62537.16;4974382;28;19923;-84
2023/04/25 01:03:59;;;;;;;;;;;11.80;78.40;;;-151.14;100.00;62537.16;4975113;28;20231;-85
2023/04/25 01:06:28;;;;;;;;;;;11.80;78.50;;;-151.14;100.00;62537.16;4958879;28;19928;-84
2023/04/25 01:08:56;;;;;;;;;;;11.80;78.40;;;-151.14;100.00;62537.16;4959000;28;19928;-84
2023/04/25 01:11:24;;;;;;;;;;;11.80;78.40;;;-151.14;100.00;62537.16;4958973;28;19922;-84
2023/04/25 01:13:52;;;;;;;;;;;11.80;78.50;;;-151.14;100.00;62537.16;4975157;28;19928;-85
2023/04/25 01:16:20;;;;;;;;;;;11.80;78.60;;;-151.14;100.00;62537.16;4974062;28;19928;-84
2023/04/25 01:18:50;;;;;;;;;;;11.80;78.30;;;-151.14;100.00;62537.16;4994222;28;19921;-84
2023/04/25 01:21:20;;;;;;;;;;;11.80;78.40;;;-151.14;100.00;62537.16;4994485;28;19921;-84
2023/04/25 01:23:49;;;;;;;;;;;11.80;78.40;;;-151.14;100.00;62537.16;4994330;28;20231;-84
2023/04/25 01:26:17;;;;;;;;;;;11.80;78.40;;;-151.14;100.00;62537.16;5010291;28;19921;-84
2023/04/25 01:28:46;;;;;;;;;;;11.80;78.50;;;-151.14;100.00;62537.16;4994213;28;19921;-85
2023/04/25 01:31:14;;;;;;;;;;;11.80;78.40;;;-151.14;100.00;62537.16;4978109;28;19921;-84
2023/04/25 01:33:42;;;;;;;;;;;11.80;78.50;;;-151.14;100.00;62537.16;4977999;28;19922;-84
2023/04/25 01:36:10;;;;;;;;;;;11.80;78.50;;;-151.14;100.00;62537.16;4993657;28;19922;-84
2023/04/25 01:38:40;;;;;;;;;;;11.80;78.60;;;-151.14;100.00;62537.16;4994205;28;19921;-84
2023/04/25 01:41:08;;;;;;;;;;;11.80;78.70;;;-151.14;100.00;62537.16;4994224;28;19936;-84
2023/04/25 01:43:36;;;;;;;;;;;11.80;78.60;;;-151.14;100.00;62537.16;4977941;28;20217;-84
2023/04/25 01:46:04;;;;;;;;;;;11.80;78.60;;;-151.14;100.00;62537.16;4993650;28;19921;-84
2023/04/25 01:48:32;;;;;;;;;;;11.80;78.60;;;-151.14;100.00;62537.16;4993873;28;19928;-84
2023/04/25 01:51:01;;;;;;;;;;;11.80;78.50;;;-151.14;100.00;62537.16;4994044;28;19927;-84
2023/04/25 01:53:30;;;;;;;;;;;11.80;78.60;;;-151.14;100.00;62537.16;5010279;28;19921;-84
2023/04/25 01:56:00;;;;;;;;;;;11.80;78.40;;;-151.14;100.00;62537.16;4977221;28;19922;-84
2023/04/25 01:58:34;;;;;;;;;;;11.80;78.50;;;-151.14;100.00;62537.16;4977736;28;19922;-84
2023/04/25 02:01:22;;;;;;;;;;;11.80;78.50;;;-151.14;100.00;62537.16;5011188;28;19944;-84
2023/04/25 02:04:09;;;;;;;;;;;11.80;78.50;;;-151.14;100.00;62537.16;4977133;28;19929;-84
2023/04/25 02:06:39;;;;;;;;;;;11.80;78.60;;;-151.14;100.00;62537.16;4993777;28;19926;-83
2023/04/25 02:09:09;;;;;;;;;;;11.80;78.60;;;-151.14;100.00;62537.16;4993598;28;20313;-83
2023/04/25 02:11:46;;;;;;;;;;;11.80;78.60;;;-151.14;100.00;62537.16;4993801;28;19921;-84
2023/04/25 02:14:49;;;;;;;;;;;11.80;78.50;;;-151.14;100.00;62537.16;4985588;28;19921;-84
2023/04/25 02:17:35;;;;;;;;;;;11.80;78.60;;;-151.14;100.00;62537.16;4997293;28;19925;-84
2023/04/25 02:20:05;;;;;;;;;;;11.80;78.60;;;-151.14;100.00;62537.16;4980627;28;20209;-84
2023/04/25 02:22:33;;;;;;;;;;;11.80;78.60;;;-151.14;100.00;62537.16;4997126;28;19927;-83
2023/04/25 02:25:02;;;;;;;;;;;11.80;78.60;;;-151.14;100.00;62537.16;4995297;28;19921;-84
2023/04/25 02:27:31;;;;;;;;;;;11.80;78.70;;;-151.14;100.00;62537.16;4996653;28;19921;-83
2023/04/25 02:29:59;;;;;;;;;;;11.80;78.70;;;-151.14;100.00;62537.16;4980783;28;20238;-84
2023/04/25 02:32:28;;;;;;;;;;;11.80;78.60;;;-151.14;100.00;62537.16;4996801;28;20209;-84
2023/04/25 02:34:58;;;;;;;;;;;11.80;78.60;;;-151.14;100.00;62537.16;4995967;28;19931;-84
2023/04/25 02:37:28;;;;;;;;;;;11.80;78.60;;;-151.14;100.00;62537.16;4996728;28;19927;-84
2023/04/25 02:39:56;;;;;;;;;;;11.80;78.80;;;-151.14;100.00;62537.16;4996741;28;19921;-84
2023/04/25 02:42:24;;;;;;;;;;;11.80;78.70;;;-151.14;100.00;62537.16;4996767;28;19922;-84
2023/04/25 02:44:54;;;;;;;;;;;11.80;78.80;;;-151.14;100.00;62537.16;4979824;28;19927;-84
2023/04/25 02:47:25;;;;;;;;;;;11.80;78.80;;;-151.14;100.00;62537.16;5013336;28;20201;-84
2023/04/25 02:49:56;;;;;;;;;;;11.80;78.70;;;-151.14;100.00;62537.16;4996509;28;20132;-84
2023/04/25 02:52:25;;;;;;;;;;;11.80;79.60;;;-151.14;100.00;62537.16;4996701;28;19928;-84
2023/04/25 02:55:00;;;;;;;;;;;11.80;78.90;;;-151.14;100.00;62537.16;4996098;28;19928;-84
2023/04/25 02:57:30;;;;;;;;;;;11.80;78.80;;;-151.14;100.00;62537.16;5012810;28;19941;-83
2023/04/25 02:59:59;;;;;;;;;;;11.80;78.80;;;-151.14;100.00;62537.16;4996368;28;19921;-84
2023/04/25 03:02:28;;;;;;;;;;;11.80;78.70;;;-151.14;100.00;62537.16;4996373;28;20116;-85
2023/04/25 03:04:56;;;;;;;;;;;11.80;78.80;;;-151.14;100.00;62537.16;4979195;28;19925;-84
2023/04/25 03:07:25;;;;;;;;;;;11.80;78.70;;;-151.14;100.00;62537.16;4996296;28;20258;-84
2023/04/25 03:09:53;;;;;;;;;;;11.80;78.80;;;-151.14;100.00;62537.16;5013714;28;19944;-84
2023/04/25 03:12:21;;;;;;;;;;;11.80;78.70;;;-151.14;100.00;62537.16;4980190;28;19921;-84
2023/04/25 03:14:49;;;;;;;;;;;11.80;78.70;;;-151.14;100.00;62537.16;4995323;28;19922;-84
2023/04/25 03:17:19;;;;;;;;;;;11.80;78.80;;;-151.14;100.00;62537.16;4996414;28;20224;-85
2023/04/25 03:19:47;;;;;;;;;;;11.80;78.80;;;-151.14;100.00;62537.16;5012523;28;19922;-85
2023/04/25 03:22:15;;;;;;;;;;;11.80;78.80;;;-151.14;100.00;62537.16;4996107;28;19928;-85
2023/04/25 03:24:43;;;;;;;;;;;11.80;78.90;;;-151.14;100.00;62537.16;4994788;28;19922;-85
2023/04/25 03:27:11;;;;;;;;;;;11.80;78.80;;;-151.14;100.00;62537.16;4996189;28;20124;-84
2023/04/25 03:29:40;;;;;;;;;;;11.80;78.80;;;-151.14;100.00;62537.16;4995957;28;19928;-85
2023/04/25 03:32:08;;;;;;;;;;;11.80;78.80;;;-151.14;100.00;62537.16;4979685;28;19927;-84
2023/04/25 03:34:38;;;;;;;;;;;11.80;79.70;;;-151.14;100.00;62537.16;4979086;28;19925;-84
2023/04/25 03:37:06;;;;;;;;;;;11.80;78.90;;;-151.14;100.00;62537.16;4995895;28;19921;-84
2023/04/25 03:39:38;;;;;;;;;;;11.80;78.90;;;-151.14;100.00;62537.16;4979796;28;20129;-84
2023/04/25 03:42:08;;;;;;;;;;;11.80;78.90;;;-151.14;100.00;62537.16;4995956;28;19922;-85
2023/04/25 03:44:36;;;;;;;;;;;11.80;78.80;;;-151.14;100.00;62537.16;4995084;28;19921;-85
2023/04/25 03:47:04;;;;;;;;;;;11.80;78.80;;;-151.14;100.00;62537.16;4995639;28;19987;-85
2023/04/25 03:49:33;;;;;;;;;;;11.80;78.90;;;-151.14;100.00;62537.16;4995742;28;19928;-85
2023/04/25 03:52:05;;;;;;;;;;;11.80;79.00;;;-151.14;100.00;62537.16;4995552;28;19921;-85
2023/04/25 03:54:39;;;;;;;;;;;11.80;78.90;;;-151.14;100.00;62537.16;4995055;28;19927;-85
2023/04/25 03:57:11;;;;;;;;;;;11.80;78.80;;;-151.14;100.00;62537.16;5011999;28;19922;-84
2023/04/25 03:59:41;;;;;;;;;;;11.80;78.80;;;-151.14;100.00;62537.16;4995693;28;19921;-84
2023/04/25 04:02:12;;;;;;;;;;;11.80;78.80;;;-151.14;100.00;62537.16;4995460;28;19922;-84
2023/04/25 04:04:41;;;;;;;;;;;11.80;78.90;;;-151.14;100.00;62537.16;4994764;28;19921;-85
2023/04/25 04:07:10;;;;;;;;;;;11.80;78.90;;;-151.14;100.00;62537.16;4995362;28;19922;-84
2023/04/25 04:09:42;;;;;;;;;;;11.80;78.90;;;-151.14;100.00;62537.16;4995479;28;19921;-84
2023/04/25 04:12:15;;;;;;;;;;;11.80;78.90;;;-151.14;100.00;62537.16;4979247;28;20094;-84
2023/04/25 04:14:44;;;;;;;;;;;11.80;78.90;;;-151.14;100.00;62537.16;4994558;28;20175;-84
2023/04/25 04:17:12;;;;;;;;;;;11.80;78.90;;;-151.14;100.00;62537.16;4995420;28;20149;-84
2023/04/25 04:19:40;;;;;;;;;;;11.80;78.90;;;-151.14;100.00;62537.16;4995302;28;19922;-84
2023/04/25 04:22:15;;;;;;;;;;;11.80;78.90;;;-151.14;100.00;62537.16;4995268;28;19922;-84
2023/04/25 04:24:46;;;;;;;;;;;11.80;78.90;;;-151.14;100.00;62537.16;4994559;28;19925;-84
2023/04/25 04:27:18;;;;;;;;;;;11.80;78.90;;;-151.14;100.00;62537.16;4995250;28;19922;-84
2023/04/25 04:30:08;;;;;;;;;;;11.80;79.00;;;-151.14;100.00;62537.16;4994999;28;19936;-84
2023/04/25 04:32:40;;;;;;;;;;;11.80;79.00;;;-151.14;100.00;62537.16;5011543;28;19928;-83
2023/04/25 04:35:11;;;;;;;;;;;11.80;79.10;;;-151.14;100.00;62537.16;4994508;28;20120;-84
2023/04/25 04:37:41;;;;;;;;;;;11.80;79.00;;;-151.14;100.00;62537.16;4993831;28;19921;-84
2023/04/25 04:40:15;;;;;;;;;;;11.80;78.90;;;-151.14;100.00;62537.16;4995052;28;19928;-84
2023/04/25 04:43:01;;;;;;;;;;;11.80;78.90;;;-151.14;100.00;62537.16;4994855;28;19921;-83
2023/04/25 04:45:30;;;;;;;;;;;11.80;79.10;;;-151.14;100.00;62537.16;4994240;28;20116;-84
2023/04/25 04:48:07;;;;;;;;;;;11.80;79.00;;;-151.14;100.00;62537.16;4994643;28;19928;-84
2023/04/25 04:50:40;;;;;;;;;;;11.80;79.00;;;-151.14;100.00;62537.16;4994899;28;20398;-84
2023/04/25 04:53:35;;;;;;;;;;;11.80;79.00;;;-151.14;100.00;62537.16;4969989;28;20099;-84
2023/04/25 04:56:23;;;;;;;;;;;11.80;79.00;;;-151.14;100.00;62537.16;4974550;28;19928;-85
2023/04/25 04:59:10;;;;;;;;;;;11.80;78.90;;;-151.14;100.00;62537.16;4975343;28;19922;-84
2023/04/25 05:01:57;;;;;;;;;;;11.80;78.90;;;-151.14;100.00;62537.16;4992549;28;20120;-84
2023/04/25 05:04:38;;;;;;;;;;;11.80;79.00;;;-151.14;100.00;62537.16;4958500;28;19925;-84
2023/04/25 05:07:44;;;;;;;;;;;11.80;79.00;;;-151.14;100.00;62537.16;4935454;29;20226;-84
2023/04/25 05:10:46;;;;;;;;;;;11.80;79.10;;;-151.14;100.00;62537.16;4951719;29;19929;-84
2023/04/25 05:13:21;;;;;;;;;;;11.80;78.90;;;-151.14;100.00;62537.16;4981188;28;19922;-84
2023/04/25 05:16:12;;;;;;;;;;;11.80;79.00;;;-151.14;100.00;62537.16;4957846;28;19928;-84
2023/04/25 05:19:16;;;;;;;;;;;11.80;79.00;;;-151.14;100.00;62537.16;4973816;28;19928;-85
2023/04/25 05:22:23;;;;;;;;;;;11.80;79.00;;;-151.14;100.00;62537.16;4980389;28;19928;-84
2023/04/25 05:25:10;;;;;;;;;;;11.80;79.10;;;-151.14;100.00;62537.16;4993739;28;20209;-84
2023/04/25 05:27:59;;;;;;;;;;;11.80;79.10;;;-151.14;100.00;62537.16;4978260;28;19948;-84
2023/04/25 05:30:46;;;;;;;;;;;11.80;79.10;;;-151.14;100.00;62537.16;4994273;28;19928;-83
2023/04/25 05:33:37;;;;;;;;;;;11.90;79.20;;;-151.14;100.00;62537.16;4994231;28;19922;-84
2023/04/25 05:36:06;;;;;;;;;;;11.90;79.30;;;-151.14;100.00;62537.16;4993506;28;19922;-84
2023/04/25 05:38:34;;;;;;;;;;;11.90;79.20;;;-151.14;100.00;62537.16;4978177;28;20213;-84
2023/04/25 05:41:21;;;;;;;;;;;11.90;79.00;;;-151.14;100.00;62537.16;4994271;28;19921;-85
2023/04/25 05:44:00;;;;;;;;;;;12.00;79.00;;;-151.14;100.00;62537.16;4993984;28;20233;-85
2023/04/25 05:46:43;;;;;;;;;;;12.00;78.90;;;-151.14;100.00;62537.16;4994042;28;19936;-85
2023/04/25 05:49:11;;;;;;;;;;;12.00;78.80;;;-151.14;100.00;62537.16;4996648;28;19922;-84
2023/04/25 05:51:45;;;;;;;;;;;12.10;78.80;;;-151.14;100.00;62537.16;5014825;28;19925;-84
2023/04/25 05:54:19;;;;;;;;;;;12.10;78.60;;;-151.14;100.00;62537.16;4996888;28;19936;-84
2023/04/25 05:56:47;;;;;;;;;;;12.10;78.50;;;-151.14;100.00;62537.16;4980971;28;19921;-85
2023/04/25 05:59:17;;;;;;;;;;;12.10;78.40;;;-151.14;100.00;62537.16;4997328;28;19922;-85
2023/04/25 06:01:45;;;;;;;;;;;12.20;78.20;;;-151.14;100.00;62537.16;4981102;28;19928;-84
2023/04/25 06:04:14;;;;;;;;;;;12.20;78.20;;;-151.14;100.00;62537.16;4980563;28;20227;-85
2023/04/25 06:06:42;;;;;;;;;;;12.10;78.10;;;-151.14;100.00;62537.16;4997375;28;19927;-85
2023/04/25 06:09:10;;;;;;;;;;;12.20;78.10;;;-151.14;100.00;62537.16;4981048;28;19922;-85
2023/04/25 06:11:38;;;;;;;;;;;12.10;78.10;;;-151.14;100.00;62537.16;5013551;28;19922;-85
2023/04/25 06:14:07;;;;;;;;;;;12.10;78.10;;;-151.14;100.00;62537.16;4996527;28;19922;-85
2023/04/25 06:16:38;;;;;;;;;;;12.10;78.20;;;-151.14;100.00;62537.16;4980889;28;19921;-85
2023/04/25 06:19:06;;;;;;;;;;;12.10;78.20;;;-151.14;100.00;62537.16;5013520;28;19927;-85
2023/04/25 06:21:35;;;;;;;;;;;12.10;78.20;;;-151.14;100.00;62537.16;4980796;28;19921;-85
2023/04/25 06:24:03;;;;;;;;;;;12.10;78.40;;;-151.14;100.00;62537.16;4996414;28;19922;-86
2023/04/25 06:26:31;;;;;;;;;;;12.10;78.40;;;-151.14;100.00;62537.16;4980685;28;20209;-85
2023/04/25 06:28:59;;;;;;;;;;;12.00;78.30;;;-151.14;100.00;62537.16;4996770;28;19927;-85
2023/04/25 06:31:28;;;;;;;;;;;12.10;78.40;;;-151.14;100.00;62537.16;4996966;28;19928;-84
2023/04/25 06:33:58;;;;;;;;;;;12.00;78.30;;;-151.14;100.00;62537.16;4996871;28;19922;-84
2023/04/25 06:36:28;;;;;;;;;;;12.10;78.40;;;-151.14;100.00;62537.16;4996734;28;19921;-84
2023/04/25 06:39:02;;;;;;;;;;;12.10;78.50;;;-151.14;100.00;62537.16;4996771;28;19921;-84
2023/04/25 06:41:30;;;;;;;;;;;12.10;78.40;;;-151.14;100.00;62537.16;4996787;28;19922;-85
2023/04/25 06:44:03;;;;;;;;;;;12.10;78.40;;;-151.14;100.00;62537.16;4996496;28;19936;-84
2023/04/25 06:46:34;;;;;;;;;;;12.10;78.40;;;-151.14;100.00;62537.16;4996940;28;19922;-84
2023/04/25 06:49:04;;;;;;;;;;;12.10;78.40;;;-151.14;100.00;62537.16;4996705;28;20205;-84
2023/04/25 06:51:32;;;;;;;;;;;12.10;78.40;;;-151.14;100.00;62537.16;4996447;28;19922;-85
2023/04/25 06:54:00;;;;;;;;;;;12.10;78.40;;;-151.14;100.00;62537.16;4996173;28;19928;-84
2023/04/25 06:56:39;;;;;;;;;;;12.10;78.40;;;-151.14;100.00;62537.16;4980431;28;19922;-84
2023/04/25 06:59:14;;;;;;;;;;;12.20;78.30;;;-151.14;100.00;62537.16;4979328;28;19922;-84
2023/04/25 07:01:44;;;;;;;;;;;12.20;78.20;;;-151.14;100.00;62537.16;4996349;28;19927;-84
2023/04/25 07:04:19;;;;;;;;;;;12.20;78.10;;;-151.14;100.00;62537.16;4995897;28;19922;-84
2023/04/25 07:06:52;;;;;;;;;;;12.30;78.00;;;-151.14;100.00;62537.16;4996397;28;19936;-85
2023/04/25 07:09:25;;;;;;;;;;;12.30;77.90;;;-151.14;100.00;62537.16;4980291;28;19922;-84
2023/04/25 07:11:53;;;;;;;;;;;12.30;77.80;;;-151.14;100.00;62537.16;4996062;28;19921;-85
2023/04/25 07:14:22;;;;;;;;;;;12.30;77.70;;;-151.14;100.00;62537.16;4995586;28;19936;-84
2023/04/25 07:16:50;;;;;;;;;;;12.40;77.60;;;-151.14;100.00;62537.16;4996199;28;19943;-84
2023/04/25 07:19:19;;;;;;;;;;;12.30;77.60;;;-151.14;100.00;62537.16;4996148;28;20094;-84
2023/04/25 07:21:47;;;;;;;;;;;12.40;77.50;;;-151.14;100.00;62537.16;4996116;28;19952;-84
2023/04/25 07:24:15;;;;;;;;;;;12.40;77.40;;;-151.14;100.00;62537.16;4979342;28;19928;-84
2023/04/25 07:26:47;;;;;;;;;;;12.50;77.30;;;-151.14;100.00;62537.16;4979934;28;19928;-85
2023/04/25 07:29:38;;;;;;;;;;;12.50;77.20;;;-151.14;100.00;62537.16;4996010;28;19921;-84
2023/04/25 07:32:07;;;;;;;;;;;12.50;77.10;;;-151.14;100.00;62537.16;4995927;28;20094;-85
2023/04/25 07:34:38;;;;;;;;;;;12.50;76.90;;;-151.14;100.00;62537.16;4979136;28;20099;-84
2023/04/25 07:37:06;;;;;;;;;;;12.50;76.90;;;-151.14;100.00;62537.16;4995925;28;19927;-85
2023/04/25 07:39:43;;;;;;;;;;;12.50;76.90;;;-151.14;100.00;62537.16;4995869;28;19921;-85
2023/04/25 07:42:12;;;;;;;;;;;12.60;76.90;;;-151.14;100.00;62537.16;4995590;28;19944;-84
2023/04/25 07:44:43;;;;;;;;;;;12.60;76.80;;;-151.14;100.00;62537.16;4978876;28;19922;-84
2023/04/25 07:47:14;;;;;;;;;;;12.60;76.80;;;-151.14;100.00;62537.16;4995875;28;20125;-85
2023/04/25 07:49:45;;;;;;;;;;;12.60;76.70;;;-151.14;100.00;62537.16;4995596;28;20121;-85
2023/04/25 07:52:13;;;;;;;;;;;12.60;76.60;;;-151.14;100.00;62537.16;4995728;28;19926;-85
2023/04/25 07:54:47;;;;;;;;;;;12.70;76.60;;;-151.14;100.00;62537.16;4978752;28;19928;-85
2023/04/25 07:57:20;;;;;;;;;;;12.70;76.70;;;-151.14;100.00;62537.16;4979604;28;19922;-85
2023/04/25 07:59:49;;;;;;;;;;;12.70;76.60;;;-151.14;100.00;62537.16;4995429;28;20305;-85
2023/04/25 08:02:17;;;;;;;;;;;12.70;76.50;;;-151.14;100.00;62537.16;5012084;28;19928;-84
2023/04/25 08:04:49;;;;;;;;;;;12.70;76.40;;;-151.14;100.00;62537.16;4978631;28;19921;-85
2023/04/25 08:07:19;;;;;;;;;;;12.70;76.40;;;-151.14;100.00;62537.16;4995621;28;19922;-85
2023/04/25 08:09:52;;;;;;;;;;;12.70;76.40;;;-151.14;100.00;62537.16;4995290;28;19921;-85
2023/04/25 08:12:34;;;;;;;;;;;12.70;76.40;;;-151.14;100.00;62537.16;4995502;28;20367;-85
2023/04/25 08:15:02;;;;;;;;;;;12.70;76.40;;;-151.14;100.00;62537.16;4989158;28;19925;-85
2023/04/25 08:17:35;;;;;;;;;;;12.70;76.40;;;-151.14;100.00;62537.16;4975994;28;19921;-84
2023/04/25 08:20:06;;;;;;;;;;;12.70;76.50;;;-151.14;100.00;62537.16;4959857;28;19928;-85
2023/04/25 08:22:35;;;;;;;;;;;12.70;76.50;;;-151.14;100.00;62537.16;4959930;28;19986;-85
2023/04/25 08:25:29;;;;;;;;;;;12.70;76.40;;;-151.14;100.00;62537.16;4955849;28;19922;-85
2023/04/25 08:27:59;;;;;;;;;;;12.80;76.30;;;-151.14;100.00;62537.16;4940626;28;19922;-85
2023/04/25 08:30:27;;;;;;;;;;;12.80;76.20;;;-151.14;100.00;62537.16;4940599;28;19922;-85
2023/04/25 08:32:56;;;;;;;;;;;12.80;76.10;;;-151.14;100.00;62537.16;4940538;28;20209;-85
2023/04/25 08:35:48;;;;;;;;;;;12.90;76.10;;;-151.14;100.00;62537.16;4964972;28;19922;-85
2023/04/25 08:38:17;;;;;;;;;;;12.90;76.00;;;-151.14;100.00;62537.16;4940452;28;19922;-85
2023/04/25 08:40:46;;;;;;;;;;;12.90;76.00;;;-151.14;100.00;62537.16;4940339;28;19922;-84
2023/04/25 08:43:19;;;;;;;;;;;12.90;75.80;;;-151.14;100.00;62537.16;4940404;28;19922;-85
2023/04/25 08:45:47;;;;;;;;;;;12.90;75.80;;;-151.14;100.00;62537.16;4939676;28;19922;-84
2023/04/25 08:48:24;;;;;;;;;;;12.90;75.80;;;-151.14;100.00;62537.16;4940721;28;19928;-85
2023/04/25 08:50:54;;;;;;;;;;;12.90;76.00;;;-151.14;100.00;62537.16;4940195;28;19928;-84
2023/04/25 08:53:26;;;;;;;;;;;12.90;76.00;;;-151.14;100.00;62537.16;4940275;28;19937;-85
2023/04/25 08:55:55;;;;;;;;;;;12.80;76.00;;;-151.14;100.00;62537.16;4955437;28;19922;-85
2023/04/25 08:58:23;;;;;;;;;;;12.80;76.00;;;-151.14;100.00;62537.16;4940192;28;19922;-85
2023/04/25 09:00:51;;;;;;;;;;;12.80;76.10;;;-151.14;100.00;62537.16;4955816;28;19929;-85
2023/04/25 09:03:22;;;;;;;;;;;12.80;76.10;;;-151.14;100.00;62537.16;4956186;28;19922;-85
2023/04/25 09:05:53;;;;;;;;;;;12.80;76.10;;;-151.14;100.00;62537.16;4943597;28;19922;-85
2023/04/25 09:08:23;;;;;;;;;;;12.80;76.10;;;-151.14;100.00;62537.16;4959086;28;19928;-85
2023/04/25 09:10:51;;;;;;;;;;;12.80;76.10;;;-151.14;100.00;62537.16;4991337;28;19921;-85
2023/04/25 09:13:25;;;;;;;;;;;12.80;76.20;;;-151.14;100.00;62537.16;4975027;28;19922;-85
2023/04/25 09:16:29;;;;;;;;;;;12.80;76.30;;;-151.14;100.00;62537.16;4973772;28;19921;-85
2023/04/25 09:19:35;;;;;;;;;;;12.70;76.40;;;-151.14;100.00;62537.16;4994325;28;19927;-85
2023/04/25 09:22:05;;;;;;;;;;;12.70;76.60;;;-151.14;100.00;62537.16;5010315;28;19922;-85
2023/04/25 09:24:34;;;;;;;;;;;12.70;76.70;;;-151.14;100.00;62537.16;4993387;28;19922;-84
2023/04/25 09:27:04;;;;;;;;;;;12.70;76.80;;;-151.14;100.00;62537.16;4978201;28;19928;-85
2023/04/25 09:29:33;;;;;;;;;;;12.70;76.80;;;-151.14;100.00;62537.16;4994331;28;19944;-85
2023/04/25 09:32:19;;;;;;;;;;;12.70;76.80;;;-151.14;100.00;62537.16;4978351;28;19921;-85
2023/04/25 09:34:50;;;;;;;;;;;12.70;76.80;;;-151.14;100.00;62537.16;4993683;28;20235;-85
2023/04/25 09:37:22;;;;;;;;;;;12.70;76.70;;;-151.14;100.00;62537.16;4994238;28;20121;-85
2023/04/25 09:40:12;;;;;;;;;;;12.70;76.80;;;-151.14;100.00;62537.16;4994115;28;19921;-85
2023/04/25 09:43:11;;;;;;;;;;;12.70;76.80;;;-151.14;100.00;62537.16;4977923;28;20398;-85
2023/04/25 09:45:45;;;;;;;;;;;12.70;76.80;;;-151.14;100.00;62537.16;4993414;28;20217;-84
2023/04/25 09:48:17;;;;;;;;;;;12.70;76.90;;;-151.14;100.00;62537.16;4994128;28;19921;-85
2023/04/25 09:50:46;;;;;;;;;;;12.70;76.90;;;-151.14;100.00;62537.16;4994063;28;19921;-85
2023/04/25 09:53:16;;;;;;;;;;;12.60;76.80;;;-151.14;100.00;62537.16;4993841;28;19932;-85
2023/04/25 09:56:12;;;;;;;;;;;12.60;76.90;;;-151.14;100.00;62537.16;4977312;28;19921;-85
2023/04/25 09:58:41;;;;;;;;;;;12.60;77.10;;;-151.14;100.00;62537.16;4994093;28;19921;-85
2023/04/25 10:01:12;;;;;;;;;;;12.60;77.10;;;-151.14;100.00;62537.16;4993557;28;20199;-85
2023/04/25 10:03:56;;;;;;;;;;;12.60;77.20;;;-151.14;100.00;62537.16;4994015;28;19928;-85
2023/04/25 10:06:42;;;;;;;;;;;12.50;77.20;;;-151.14;100.00;62537.16;4977465;28;19928;-85
2023/04/25 10:09:12;;;;;;;;;;;12.50;77.30;;;-151.14;100.00;62537.16;4993910;28;19928;-85
2023/04/25 10:11:41;;;;;;;;;;;12.50;77.30;;;-151.14;100.00;62537.16;4977880;28;19928;-85
2023/04/25 10:14:09;;;;;;;;;;;12.50;77.40;;;-151.14;100.00;62537.16;4993033;28;20255;-85
2023/04/25 10:16:37;;;;;;;;;;;12.50;77.40;;;-151.14;100.00;62537.16;4993770;28;19927;-85
2023/04/25 10:19:05;;;;;;;;;;;12.50;77.50;;;-151.14;100.00;62537.16;4993706;28;19922;-85
2023/04/25 10:21:33;;;;;;;;;;;12.50;77.50;;;-151.14;100.00;62537.16;4977443;28;20124;-85
2023/04/25 10:24:02;;;;;;;;;;;12.50;77.60;;;-151.14;100.00;62537.16;4993329;28;19921;-86
2023/04/25 10:26:31;;;;;;;;;;;12.50;77.60;;;-151.14;100.00;62537.16;4977549;28;19922;-85
2023/04/25 10:29:00;;;;;;;;;;;12.50;77.70;;;-151.14;100.00;62537.16;4977574;28;19927;-85
2023/04/25 10:31:29;;;;;;;;;;;12.50;77.70;;;-151.14;100.00;62537.16;4993547;28;20117;-85
2023/04/25 10:33:57;;;;;;;;;;;12.50;77.70;;;-151.14;100.00;62537.16;4994538;28;19928;-85
2023/04/25 10:36:27;;;;;;;;;;;12.50;77.70;;;-151.14;100.00;62537.16;5012873;28;19922;-85
2023/04/25 10:38:55;;;;;;;;;;;12.50;77.70;;;-151.14;100.00;62537.16;5014442;28;19922;-85
2023/04/25 10:41:23;;;;;;;;;;;12.50;77.80;;;-151.14;100.00;62537.16;4996771;28;20027;-85
2023/04/25 10:44:00;;;;;;;;;;;12.50;77.80;;;-151.14;100.00;62537.16;4980577;28;19922;-85
2023/04/25 10:46:29;;;;;;;;;;;12.50;77.80;;;-151.14;100.00;62537.16;4996564;28;19922;-85
2023/04/25 10:48:58;;;;;;;;;;;12.40;77.70;;;-151.14;100.00;62537.16;5014266;28;20334;-85
2023/04/25 10:51:26;;;;;;;;;;;12.50;77.90;;;-151.14;100.00;62537.16;4996522;28;19928;-86
2023/04/25 10:53:58;;;;;;;;;;;12.40;77.80;;;-151.14;100.00;62537.16;4980538;28;19921;-86
2023/04/25 10:56:27;;;;;;;;;;;12.40;77.90;;;-151.14;100.00;62537.16;4996338;28;19922;-84
2023/04/25 10:59:09;;;;;;;;;;;12.50;78.00;;;-151.14;100.00;62537.16;4996590;28;20098;-85
2023/04/25 11:01:39;;;;;;;;;;;12.50;77.90;;;-151.14;100.00;62537.16;4980424;28;19930;-85
2023/04/25 11:04:07;;;;;;;;;;;12.50;77.90;;;-151.14;100.00;62537.16;4995873;28;19921;-85
2023/04/25 11:06:51;;;;;;;;;;;12.50;78.00;;;-151.14;100.00;62537.16;4996402;28;20099;-85
2023/04/25 11:09:19;;;;;;;;;;;12.50;78.00;;;-151.14;100.00;62537.16;5012834;28;19921;-85
2023/04/25 11:11:55;;;;;;;;;;;12.50;77.90;;;-151.14;100.00;62537.16;4996480;28;20117;-85
2023/04/25 11:14:24;;;;;;;;;;;12.50;77.90;;;-151.14;100.00;62537.16;4995497;28;19929;-85
2023/04/25 11:16:55;;;;;;;;;;;12.50;77.80;;;-151.14;100.00;62537.16;4996215;28;19921;-85
2023/04/25 11:19:23;;;;;;;;;;;12.60;77.70;;;-151.14;100.00;62537.16;4996225;28;19922;-85